sensor_id;sensor_type;location;lat;lon;timestamp;P1;durP1;ratioP1;P2;durP2;ratioP2
13969;SDS011;7057;49.984;8.404;2024-03-17T00:00:02;8.27;;;7.47;;
13969;SDS011;7057;49.984;8.404;2024-03-17T00:02:28;10.33;;;7.50;;
13969;SDS011;7057;49.984;8.404;2024-03-17T00:04:55;9.33;;;7.73;;
13969;SDS011;7057;49.984;8.404;2024-03-17T00:07:23;9.00;;;7.17;;
13969;SDS011;7057;49.984;8.404;2024-03-17T00:09:50;10.37;;;7.87;;
13969;SDS011;7057;49.984;8.404;2024-03-17T00:12:17;9.70;;;7.73;;
13969;SDS011;7057;49.984;8.404;2024-03-17T00:14:43;9.00;;;7.83;;
13969;SDS011;7057;49.984;8.404;2024-03-17T00:17:10;9.60;;;7.77;;
13969;SDS011;7057;49.984;8.404;2024-03-17T00:19:37;9.03;;;7.83;;
13969;SDS011;7057;49.984;8.404;2024-03-17T00:22:03;8.90;;;7.93;;
13969;SDS011;7057;49.984;8.404;2024-03-17T00:24:32;9.47;;;7.67;;
13969;SDS011;7057;49.984;8.404;2024-03-17T00:26:59;12.13;;;8.77;;
13969;SDS011;7057;49.984;8.404;2024-03-17T00:29:27;8.70;;;7.80;;
13969;SDS011;7057;49.984;8.404;2024-03-17T00:31:53;9.17;;;8.27;;
13969;SDS011;7057;49.984;8.404;2024-03-17T00:34:20;10.07;;;8.40;;
13969;SDS011;7057;49.984;8.404;2024-03-17T00:36:46;8.67;;;7.90;;
13969;SDS011;7057;49.984;8.404;2024-03-17T00:39:13;9.07;;;8.13;;
13969;SDS011;7057;49.984;8.404;2024-03-17T00:41:41;8.47;;;7.60;;
13969;SDS011;7057;49.984;8.404;2024-03-17T00:44:08;8.17;;;7.40;;
13969;SDS011;7057;49.984;8.404;2024-03-17T00:46:34;9.87;;;8.03;;
13969;SDS011;7057;49.984;8.404;2024-03-17T00:49:02;8.87;;;7.97;;
13969;SDS011;7057;49.984;8.404;2024-03-17T00:51:28;8.83;;;7.93;;
13969;SDS011;7057;49.984;8.404;2024-03-17T00:53:55;10.73;;;8.50;;
13969;SDS011;7057;49.984;8.404;2024-03-17T00:56:21;8.70;;;7.80;;
13969;SDS011;7057;49.984;8.404;2024-03-17T00:58:50;10.73;;;8.27;;
13969;SDS011;7057;49.984;8.404;2024-03-17T01:01:17;11.27;;;8.67;;
13969;SDS011;7057;49.984;8.404;2024-03-17T01:03:45;8.90;;;8.10;;
13969;SDS011;7057;49.984;8.404;2024-03-17T01:06:11;8.87;;;8.07;;
13969;SDS011;7057;49.984;8.404;2024-03-17T01:08:38;12.80;;;9.40;;
13969;SDS011;7057;49.984;8.404;2024-03-17T01:11:05;13.60;;;9.13;;
13969;SDS011;7057;49.984;8.404;2024-03-17T01:13:33;9.20;;;8.30;;
13969;SDS011;7057;49.984;8.404;2024-03-17T01:16:01;10.87;;;8.67;;
13969;SDS011;7057;49.984;8.404;2024-03-17T01:18:29;10.93;;;9.17;;
13969;SDS011;7057;49.984;8.404;2024-03-17T01:20:55;13.03;;;9.40;;
13969;SDS011;7057;49.984;8.404;2024-03-17T01:23:22;10.57;;;9.40;;
13969;SDS011;7057;49.984;8.404;2024-03-17T01:25:48;10.80;;;9.67;;
13969;SDS011;7057;49.984;8.404;2024-03-17T01:28:15;11.53;;;9.30;;
13969;SDS011;7057;49.984;8.404;2024-03-17T01:30:41;9.90;;;8.90;;
13969;SDS011;7057;49.984;8.404;2024-03-17T01:33:10;11.83;;;9.57;;
13969;SDS011;7057;49.984;8.404;2024-03-17T01:35:37;11.33;;;9.37;;
13969;SDS011;7057;49.984;8.404;2024-03-17T01:38:04;9.77;;;8.77;;
13969;SDS011;7057;49.984;8.404;2024-03-17T01:40:30;12.27;;;9.47;;
13969;SDS011;7057;49.984;8.404;2024-03-17T01:42:57;10.73;;;9.40;;
13969;SDS011;7057;49.984;8.404;2024-03-17T01:45:25;10.93;;;9.17;;
13969;SDS011;7057;49.984;8.404;2024-03-17T01:47:52;10.53;;;9.20;;
13969;SDS011;7057;49.984;8.404;2024-03-17T01:50:20;10.20;;;9.10;;
13969;SDS011;7057;49.984;8.404;2024-03-17T01:52:50;10.43;;;9.03;;
13969;SDS011;7057;49.984;8.404;2024-03-17T01:55:17;10.77;;;9.07;;
13969;SDS011;7057;49.984;8.404;2024-03-17T01:57:44;10.93;;;9.93;;
13969;SDS011;7057;49.984;8.404;2024-03-17T02:00:11;11.03;;;8.63;;
13969;SDS011;7057;49.984;8.404;2024-03-17T02:02:39;12.37;;;8.97;;
13969;SDS011;7057;49.984;8.404;2024-03-17T02:05:06;12.33;;;9.33;;
13969;SDS011;7057;49.984;8.404;2024-03-17T02:07:34;10.10;;;9.10;;
13969;SDS011;7057;49.984;8.404;2024-03-17T02:10:01;10.63;;;9.07;;
13969;SDS011;7057;49.984;8.404;2024-03-17T02:12:30;12.80;;;9.70;;
13969;SDS011;7057;49.984;8.404;2024-03-17T02:14:56;12.20;;;9.83;;
13969;SDS011;7057;49.984;8.404;2024-03-17T02:17:23;11.40;;;10.03;;
13969;SDS011;7057;49.984;8.404;2024-03-17T02:19:50;10.57;;;9.37;;
13969;SDS011;7057;49.984;8.404;2024-03-17T02:22:19;12.40;;;9.90;;
13969;SDS011;7057;49.984;8.404;2024-03-17T02:24:45;11.57;;;9.60;;
13969;SDS011;7057;49.984;8.404;2024-03-17T02:27:12;11.27;;;9.53;;
13969;SDS011;7057;49.984;8.404;2024-03-17T02:29:39;11.07;;;9.97;;
13969;SDS011;7057;49.984;8.404;2024-03-17T02:32:06;10.70;;;9.20;;
13969;SDS011;7057;49.984;8.404;2024-03-17T02:34:32;11.87;;;9.67;;
13969;SDS011;7057;49.984;8.404;2024-03-17T02:37:00;11.00;;;9.90;;
13969;SDS011;7057;49.984;8.404;2024-03-17T02:39:28;10.87;;;9.60;;
13969;SDS011;7057;49.984;8.404;2024-03-17T02:41:59;11.03;;;9.37;;
13969;SDS011;7057;49.984;8.404;2024-03-17T02:44:26;11.33;;;9.73;;
13969;SDS011;7057;49.984;8.404;2024-03-17T02:46:53;12.07;;;10.37;;
13969;SDS011;7057;49.984;8.404;2024-03-17T02:49:20;12.13;;;10.03;;
13969;SDS011;7057;49.984;8.404;2024-03-17T02:51:47;11.63;;;9.87;;
13969;SDS011;7057;49.984;8.404;2024-03-17T02:54:14;12.40;;;9.60;;
13969;SDS011;7057;49.984;8.404;2024-03-17T02:56:43;12.87;;;10.17;;
13969;SDS011;7057;49.984;8.404;2024-03-17T02:59:10;11.10;;;9.90;;
13969;SDS011;7057;49.984;8.404;2024-03-17T03:01:37;11.33;;;9.60;;
13969;SDS011;7057;49.984;8.404;2024-03-17T03:04:04;12.23;;;10.10;;
13969;SDS011;7057;49.984;8.404;2024-03-17T03:06:31;12.90;;;10.07;;
13969;SDS011;7057;49.984;8.404;2024-03-17T03:08:59;12.63;;;9.67;;
13969;SDS011;7057;49.984;8.404;2024-03-17T03:11:26;11.67;;;9.93;;
13969;SDS011;7057;49.984;8.404;2024-03-17T03:13:54;11.87;;;9.70;;
13969;SDS011;7057;49.984;8.404;2024-03-17T03:16:21;11.97;;;10.37;;
13969;SDS011;7057;49.984;8.404;2024-03-17T03:18:50;10.93;;;9.67;;
13969;SDS011;7057;49.984;8.404;2024-03-17T03:21:17;14.60;;;10.60;;
13969;SDS011;7057;49.984;8.404;2024-03-17T03:23:44;11.53;;;10.07;;
13969;SDS011;7057;49.984;8.404;2024-03-17T03:26:12;11.57;;;10.07;;
13969;SDS011;7057;49.984;8.404;2024-03-17T03:28:39;10.67;;;9.57;;
13969;SDS011;7057;49.984;8.404;2024-03-17T03:31:11;11.53;;;10.37;;
13969;SDS011;7057;49.984;8.404;2024-03-17T03:33:39;11.90;;;10.33;;
13969;SDS011;7057;49.984;8.404;2024-03-17T03:36:07;12.53;;;11.00;;
13969;SDS011;7057;49.984;8.404;2024-03-17T03:38:34;11.93;;;10.27;;
13969;SDS011;7057;49.984;8.404;2024-03-17T03:41:05;11.83;;;10.03;;
13969;SDS011;7057;49.984;8.404;2024-03-17T03:43:33;13.20;;;10.83;;
13969;SDS011;7057;49.984;8.404;2024-03-17T03:46:01;13.73;;;10.53;;
13969;SDS011;7057;49.984;8.404;2024-03-17T03:48:29;14.23;;;11.10;;
13969;SDS011;7057;49.984;8.404;2024-03-17T03:50:57;13.03;;;10.97;;
13969;SDS011;7057;49.984;8.404;2024-03-17T03:53:24;14.40;;;10.90;;
13969;SDS011;7057;49.984;8.404;2024-03-17T03:55:52;13.33;;;10.63;;
13969;SDS011;7057;49.984;8.404;2024-03-17T03:58:19;14.53;;;10.87;;
13969;SDS011;7057;49.984;8.404;2024-03-17T04:00:46;12.23;;;11.03;;
13969;SDS011;7057;49.984;8.404;2024-03-17T04:03:13;13.40;;;11.13;;
13969;SDS011;7057;49.984;8.404;2024-03-17T04:05:42;14.63;;;11.50;;
13969;SDS011;7057;49.984;8.404;2024-03-17T04:08:09;14.43;;;11.33;;
13969;SDS011;7057;49.984;8.404;2024-03-17T04:10:36;14.57;;;12.10;;
13969;SDS011;7057;49.984;8.404;2024-03-17T04:13:03;17.43;;;10.80;;
13969;SDS011;7057;49.984;8.404;2024-03-17T04:15:30;15.73;;;12.13;;
13969;SDS011;7057;49.984;8.404;2024-03-17T04:17:59;14.23;;;11.80;;
13969;SDS011;7057;49.984;8.404;2024-03-17T04:20:27;15.47;;;12.57;;
13969;SDS011;7057;49.984;8.404;2024-03-17T04:22:55;12.53;;;11.23;;
13969;SDS011;7057;49.984;8.404;2024-03-17T04:25:23;14.07;;;11.20;;
13969;SDS011;7057;49.984;8.404;2024-03-17T04:27:50;13.00;;;10.97;;
13969;SDS011;7057;49.984;8.404;2024-03-17T04:30:17;13.40;;;10.93;;
13969;SDS011;7057;49.984;8.404;2024-03-17T04:32:44;14.30;;;10.93;;
13969;SDS011;7057;49.984;8.404;2024-03-17T04:35:11;13.10;;;10.60;;
13969;SDS011;7057;49.984;8.404;2024-03-17T04:37:38;12.33;;;10.80;;
13969;SDS011;7057;49.984;8.404;2024-03-17T04:40:08;12.23;;;9.90;;
13969;SDS011;7057;49.984;8.404;2024-03-17T04:42:35;12.83;;;10.17;;
13969;SDS011;7057;49.984;8.404;2024-03-17T04:45:04;14.17;;;10.03;;
13969;SDS011;7057;49.984;8.404;2024-03-17T04:47:32;12.13;;;9.73;;
13969;SDS011;7057;49.984;8.404;2024-03-17T04:49:59;13.37;;;10.30;;
13969;SDS011;7057;49.984;8.404;2024-03-17T04:52:26;12.83;;;9.87;;
13969;SDS011;7057;49.984;8.404;2024-03-17T04:54:53;11.70;;;9.57;;
13969;SDS011;7057;49.984;8.404;2024-03-17T04:57:21;11.70;;;9.83;;
13969;SDS011;7057;49.984;8.404;2024-03-17T04:59:48;12.43;;;9.13;;
13969;SDS011;7057;49.984;8.404;2024-03-17T05:02:16;11.60;;;9.10;;
13969;SDS011;7057;49.984;8.404;2024-03-17T05:04:43;11.07;;;9.87;;
13969;SDS011;7057;49.984;8.404;2024-03-17T05:07:10;12.50;;;8.93;;
13969;SDS011;7057;49.984;8.404;2024-03-17T05:09:37;11.57;;;8.97;;
13969;SDS011;7057;49.984;8.404;2024-03-17T05:12:04;10.63;;;8.67;;
13969;SDS011;7057;49.984;8.404;2024-03-17T05:14:33;11.40;;;8.60;;
13969;SDS011;7057;49.984;8.404;2024-03-17T05:17:01;9.37;;;7.90;;
13969;SDS011;7057;49.984;8.404;2024-03-17T05:19:28;11.47;;;7.53;;
13969;SDS011;7057;49.984;8.404;2024-03-17T05:21:55;8.13;;;7.33;;
13969;SDS011;7057;49.984;8.404;2024-03-17T05:24:22;8.37;;;7.03;;
13969;SDS011;7057;49.984;8.404;2024-03-17T05:26:49;7.53;;;6.73;;
13969;SDS011;7057;49.984;8.404;2024-03-17T05:29:16;9.83;;;7.60;;
13969;SDS011;7057;49.984;8.404;2024-03-17T05:31:45;8.90;;;7.03;;
13969;SDS011;7057;49.984;8.404;2024-03-17T05:34:12;8.53;;;6.80;;
13969;SDS011;7057;49.984;8.404;2024-03-17T05:36:39;8.93;;;6.43;;
13969;SDS011;7057;49.984;8.404;2024-03-17T05:39:06;7.50;;;6.00;;
13969;SDS011;7057;49.984;8.404;2024-03-17T05:41:33;8.47;;;6.17;;
13969;SDS011;7057;49.984;8.404;2024-03-17T05:44:01;11.10;;;6.53;;
13969;SDS011;7057;49.984;8.404;2024-03-17T05:46:29;7.63;;;6.20;;
13969;SDS011;7057;49.984;8.404;2024-03-17T05:48:58;7.57;;;5.70;;
13969;SDS011;7057;49.984;8.404;2024-03-17T05:51:25;7.00;;;5.40;;
13969;SDS011;7057;49.984;8.404;2024-03-17T05:53:53;7.47;;;5.30;;
13969;SDS011;7057;49.984;8.404;2024-03-17T05:56:23;6.87;;;5.53;;
13969;SDS011;7057;49.984;8.404;2024-03-17T05:58:50;5.80;;;5.30;;
13969;SDS011;7057;49.984;8.404;2024-03-17T06:01:17;9.67;;;5.40;;
13969;SDS011;7057;49.984;8.404;2024-03-17T06:03:47;6.53;;;5.87;;
13969;SDS011;7057;49.984;8.404;2024-03-17T06:06:16;10.77;;;5.97;;
13969;SDS011;7057;49.984;8.404;2024-03-17T06:08:43;6.47;;;5.60;;
13969;SDS011;7057;49.984;8.404;2024-03-17T06:11:10;7.87;;;5.87;;
13969;SDS011;7057;49.984;8.404;2024-03-17T06:13:38;9.13;;;6.10;;
13969;SDS011;7057;49.984;8.404;2024-03-17T06:16:05;5.93;;;5.10;;
13969;SDS011;7057;49.984;8.404;2024-03-17T06:18:32;8.00;;;5.70;;
13969;SDS011;7057;49.984;8.404;2024-03-17T06:21:00;6.93;;;5.77;;
13969;SDS011;7057;49.984;8.404;2024-03-17T06:23:28;7.97;;;5.63;;
13969;SDS011;7057;49.984;8.404;2024-03-17T06:25:55;10.33;;;6.20;;
13969;SDS011;7057;49.984;8.404;2024-03-17T06:28:22;6.33;;;5.67;;
13969;SDS011;7057;49.984;8.404;2024-03-17T06:30:54;7.03;;;5.87;;
13969;SDS011;7057;49.984;8.404;2024-03-17T06:33:24;7.33;;;5.90;;
13969;SDS011;7057;49.984;8.404;2024-03-17T06:35:51;6.97;;;6.27;;
13969;SDS011;7057;49.984;8.404;2024-03-17T06:38:17;7.17;;;6.47;;
13969;SDS011;7057;49.984;8.404;2024-03-17T06:40:49;7.30;;;6.13;;
13969;SDS011;7057;49.984;8.404;2024-03-17T06:43:16;6.80;;;6.10;;
13969;SDS011;7057;49.984;8.404;2024-03-17T06:45:43;9.60;;;6.50;;
13969;SDS011;7057;49.984;8.404;2024-03-17T06:48:10;7.87;;;6.13;;
13969;SDS011;7057;49.984;8.404;2024-03-17T06:50:37;8.97;;;6.27;;
13969;SDS011;7057;49.984;8.404;2024-03-17T06:53:06;8.80;;;5.90;;
13969;SDS011;7057;49.984;8.404;2024-03-17T06:55:34;6.63;;;5.93;;
13969;SDS011;7057;49.984;8.404;2024-03-17T06:58:02;7.03;;;6.17;;
13969;SDS011;7057;49.984;8.404;2024-03-17T07:00:29;9.03;;;6.87;;
13969;SDS011;7057;49.984;8.404;2024-03-17T07:02:57;8.00;;;6.23;;
13969;SDS011;7057;49.984;8.404;2024-03-17T07:05:24;8.27;;;6.37;;
13969;SDS011;7057;49.984;8.404;2024-03-17T07:07:51;7.20;;;6.47;;
13969;SDS011;7057;49.984;8.404;2024-03-17T07:10:18;7.10;;;6.50;;
13969;SDS011;7057;49.984;8.404;2024-03-17T07:12:46;7.53;;;6.47;;
13969;SDS011;7057;49.984;8.404;2024-03-17T07:15:14;7.47;;;6.20;;
13969;SDS011;7057;49.984;8.404;2024-03-17T07:17:41;7.60;;;6.60;;
13969;SDS011;7057;49.984;8.404;2024-03-17T07:20:08;10.37;;;7.13;;
13969;SDS011;7057;49.984;8.404;2024-03-17T07:22:38;7.43;;;6.17;;
13969;SDS011;7057;49.984;8.404;2024-03-17T07:25:05;7.07;;;6.17;;
13969;SDS011;7057;49.984;8.404;2024-03-17T07:27:32;8.47;;;7.53;;
13969;SDS011;7057;49.984;8.404;2024-03-17T07:30:03;9.10;;;7.33;;
13969;SDS011;7057;49.984;8.404;2024-03-17T07:32:33;7.67;;;6.53;;
13969;SDS011;7057;49.984;8.404;2024-03-17T07:35:00;9.27;;;7.23;;
13969;SDS011;7057;49.984;8.404;2024-03-17T07:37:28;7.93;;;6.87;;
13969;SDS011;7057;49.984;8.404;2024-03-17T07:39:55;9.13;;;7.00;;
13969;SDS011;7057;49.984;8.404;2024-03-17T07:42:22;7.90;;;7.10;;
13969;SDS011;7057;49.984;8.404;2024-03-17T07:44:49;8.43;;;7.50;;
13969;SDS011;7057;49.984;8.404;2024-03-17T07:47:16;8.87;;;7.97;;
13969;SDS011;7057;49.984;8.404;2024-03-17T07:49:47;8.33;;;7.07;;
13969;SDS011;7057;49.984;8.404;2024-03-17T07:52:14;8.03;;;6.70;;
13969;SDS011;7057;49.984;8.404;2024-03-17T07:54:41;8.13;;;7.07;;
13969;SDS011;7057;49.984;8.404;2024-03-17T07:57:08;7.63;;;6.90;;
13969;SDS011;7057;49.984;8.404;2024-03-17T07:59:35;8.20;;;7.27;;
13969;SDS011;7057;49.984;8.404;2024-03-17T08:02:02;8.97;;;6.90;;
13969;SDS011;7057;49.984;8.404;2024-03-17T08:04:29;7.70;;;6.90;;
13969;SDS011;7057;49.984;8.404;2024-03-17T08:06:58;7.80;;;7.00;;
13969;SDS011;7057;49.984;8.404;2024-03-17T08:09:25;7.17;;;6.47;;
13969;SDS011;7057;49.984;8.404;2024-03-17T08:11:52;8.20;;;6.53;;
13969;SDS011;7057;49.984;8.404;2024-03-17T08:14:19;7.70;;;6.90;;
13969;SDS011;7057;49.984;8.404;2024-03-17T08:19:50;8.83;;;6.17;;
13969;SDS011;7057;49.984;8.404;2024-03-17T08:22:19;7.33;;;5.57;;
13969;SDS011;7057;49.984;8.404;2024-03-17T08:24:46;9.30;;;6.43;;
13969;SDS011;7057;49.984;8.404;2024-03-17T08:27:13;6.43;;;5.83;;
13969;SDS011;7057;49.984;8.404;2024-03-17T08:29:41;7.33;;;6.63;;
13969;SDS011;7057;49.984;8.404;2024-03-17T08:32:08;8.37;;;6.93;;
13969;SDS011;7057;49.984;8.404;2024-03-17T08:34:35;6.50;;;5.80;;
13969;SDS011;7057;49.984;8.404;2024-03-17T08:37:02;7.87;;;5.80;;
13969;SDS011;7057;49.984;8.404;2024-03-17T08:39:30;8.47;;;6.40;;
13969;SDS011;7057;49.984;8.404;2024-03-17T08:41:58;8.10;;;6.27;;
13969;SDS011;7057;49.984;8.404;2024-03-17T08:44:25;7.07;;;6.03;;
13969;SDS011;7057;49.984;8.404;2024-03-17T08:46:52;8.97;;;6.00;;
13969;SDS011;7057;49.984;8.404;2024-03-17T08:49:19;7.47;;;5.93;;
13969;SDS011;7057;49.984;8.404;2024-03-17T08:51:46;7.80;;;6.03;;
13969;SDS011;7057;49.984;8.404;2024-03-17T08:54:13;9.60;;;6.43;;
13969;SDS011;7057;49.984;8.404;2024-03-17T08:56:42;7.20;;;6.00;;
13969;SDS011;7057;49.984;8.404;2024-03-17T08:59:09;6.43;;;5.87;;
13969;SDS011;7057;49.984;8.404;2024-03-17T09:01:37;7.27;;;6.50;;
13969;SDS011;7057;49.984;8.404;2024-03-17T09:04:04;6.20;;;5.53;;
13969;SDS011;7057;49.984;8.404;2024-03-17T09:06:31;7.20;;;6.27;;
13969;SDS011;7057;49.984;8.404;2024-03-17T09:08:59;6.97;;;6.27;;
13969;SDS011;7057;49.984;8.404;2024-03-17T09:11:28;7.30;;;6.00;;
13969;SDS011;7057;49.984;8.404;2024-03-17T09:13:56;7.10;;;5.40;;
13969;SDS011;7057;49.984;8.404;2024-03-17T09:16:24;6.37;;;5.70;;
13969;SDS011;7057;49.984;8.404;2024-03-17T09:18:51;5.50;;;5.00;;
13969;SDS011;7057;49.984;8.404;2024-03-17T09:21:18;5.80;;;5.20;;
13969;SDS011;7057;49.984;8.404;2024-03-17T09:23:45;5.77;;;5.20;;
13969;SDS011;7057;49.984;8.404;2024-03-17T09:26:12;6.17;;;5.40;;
13969;SDS011;7057;49.984;8.404;2024-03-17T09:28:41;6.20;;;5.60;;
13969;SDS011;7057;49.984;8.404;2024-03-17T09:31:10;6.43;;;5.30;;
13969;SDS011;7057;49.984;8.404;2024-03-17T09:33:37;6.40;;;4.47;;
13969;SDS011;7057;49.984;8.404;2024-03-17T09:36:05;6.67;;;4.43;;
13969;SDS011;7057;49.984;8.404;2024-03-17T09:38:32;5.77;;;5.17;;
13969;SDS011;7057;49.984;8.404;2024-03-17T09:41:00;5.30;;;4.77;;
13969;SDS011;7057;49.984;8.404;2024-03-17T09:43:27;4.67;;;4.27;;
13969;SDS011;7057;49.984;8.404;2024-03-17T09:45:54;6.13;;;4.00;;
13969;SDS011;7057;49.984;8.404;2024-03-17T09:48:24;6.37;;;4.23;;
13969;SDS011;7057;49.984;8.404;2024-03-17T09:50:53;4.73;;;4.23;;
13969;SDS011;7057;49.984;8.404;2024-03-17T09:53:23;6.87;;;4.50;;
13969;SDS011;7057;49.984;8.404;2024-03-17T09:55:50;4.93;;;4.37;;
13969;SDS011;7057;49.984;8.404;2024-03-17T09:58:18;4.77;;;4.13;;
13969;SDS011;7057;49.984;8.404;2024-03-17T10:00:45;5.37;;;3.73;;
13969;SDS011;7057;49.984;8.404;2024-03-17T10:03:12;4.77;;;3.80;;
13969;SDS011;7057;49.984;8.404;2024-03-17T10:06:01;4.90;;;4.20;;
13969;SDS011;7057;49.984;8.404;2024-03-17T10:08:28;5.13;;;3.90;;
13969;SDS011;7057;49.984;8.404;2024-03-17T10:10:59;4.93;;;3.77;;
13969;SDS011;7057;49.984;8.404;2024-03-17T10:13:26;3.83;;;3.30;;
13969;SDS011;7057;49.984;8.404;2024-03-17T10:15:53;4.47;;;3.87;;
13969;SDS011;7057;49.984;8.404;2024-03-17T10:18:20;4.50;;;3.83;;
13969;SDS011;7057;49.984;8.404;2024-03-17T10:20:48;5.03;;;3.63;;
13969;SDS011;7057;49.984;8.404;2024-03-17T10:23:21;4.97;;;4.38;;
13969;SDS011;7057;49.984;8.404;2024-03-17T10:25:48;5.13;;;4.18;;
13969;SDS011;7057;49.984;8.404;2024-03-17T10:28:16;4.67;;;3.90;;
13969;SDS011;7057;49.984;8.404;2024-03-17T10:30:56;4.60;;;3.97;;
13969;SDS011;7057;49.984;8.404;2024-03-17T10:33:23;4.27;;;3.87;;
13969;SDS011;7057;49.984;8.404;2024-03-17T10:35:53;4.30;;;3.90;;
13969;SDS011;7057;49.984;8.404;2024-03-17T10:38:26;4.80;;;4.07;;
13969;SDS011;7057;49.984;8.404;2024-03-17T10:40:53;5.07;;;4.20;;
13969;SDS011;7057;49.984;8.404;2024-03-17T10:43:20;4.50;;;3.67;;
13969;SDS011;7057;49.984;8.404;2024-03-17T10:45:51;4.83;;;4.10;;
13969;SDS011;7057;49.984;8.404;2024-03-17T10:48:19;7.53;;;4.10;;
13969;SDS011;7057;49.984;8.404;2024-03-17T10:50:47;5.50;;;3.27;;
13969;SDS011;7057;49.984;8.404;2024-03-17T10:53:16;5.63;;;3.00;;
13969;SDS011;7057;49.984;8.404;2024-03-17T10:55:53;3.87;;;3.33;;
13969;SDS011;7057;49.984;8.404;2024-03-17T10:58:30;5.20;;;3.10;;
13969;SDS011;7057;49.984;8.404;2024-03-17T11:00:58;3.80;;;3.40;;
13969;SDS011;7057;49.984;8.404;2024-03-17T11:03:28;3.33;;;3.03;;
13969;SDS011;7057;49.984;8.404;2024-03-17T11:05:56;3.77;;;3.23;;
13969;SDS011;7057;49.984;8.404;2024-03-17T11:08:23;4.47;;;3.40;;
13969;SDS011;7057;49.984;8.404;2024-03-17T11:10:51;4.53;;;3.70;;
13969;SDS011;7057;49.984;8.404;2024-03-17T11:13:24;4.73;;;3.40;;
13969;SDS011;7057;49.984;8.404;2024-03-17T11:15:52;5.30;;;3.47;;
13969;SDS011;7057;49.984;8.404;2024-03-17T11:18:36;4.10;;;3.33;;
13969;SDS011;7057;49.984;8.404;2024-03-17T11:21:04;5.55;;;3.10;;
13969;SDS011;7057;49.984;8.404;2024-03-17T11:23:36;4.75;;;3.78;;
13969;SDS011;7057;49.984;8.404;2024-03-17T11:26:03;5.03;;;3.83;;
13969;SDS011;7057;49.984;8.404;2024-03-17T11:28:48;3.53;;;3.20;;
13969;SDS011;7057;49.984;8.404;2024-03-17T11:31:31;4.90;;;3.80;;
13969;SDS011;7057;49.984;8.404;2024-03-17T11:33:57;4.40;;;3.72;;
13969;SDS011;7057;49.984;8.404;2024-03-17T11:36:35;5.22;;;4.40;;
13969;SDS011;7057;49.984;8.404;2024-03-17T11:39:04;7.10;;;4.18;;
13969;SDS011;7057;49.984;8.404;2024-03-17T11:41:35;4.93;;;4.43;;
13969;SDS011;7057;49.984;8.404;2024-03-17T11:44:14;4.90;;;3.95;;
13969;SDS011;7057;49.984;8.404;2024-03-17T11:46:40;4.93;;;4.07;;
13969;SDS011;7057;49.984;8.404;2024-03-17T11:49:12;4.53;;;3.72;;
13969;SDS011;7057;49.984;8.404;2024-03-17T11:51:42;6.20;;;4.22;;
13969;SDS011;7057;49.984;8.404;2024-03-17T11:54:10;4.50;;;3.90;;
13969;SDS011;7057;49.984;8.404;2024-03-17T11:56:39;4.43;;;3.72;;
13969;SDS011;7057;49.984;8.404;2024-03-17T11:59:06;5.53;;;3.75;;
13969;SDS011;7057;49.984;8.404;2024-03-17T12:01:35;4.38;;;3.80;;
13969;SDS011;7057;49.984;8.404;2024-03-17T12:04:03;5.82;;;4.00;;
13969;SDS011;7057;49.984;8.404;2024-03-17T12:06:30;6.63;;;4.63;;
13969;SDS011;7057;49.984;8.404;2024-03-17T12:09:07;6.60;;;4.45;;
13969;SDS011;7057;49.984;8.404;2024-03-17T12:11:35;5.63;;;4.55;;
13969;SDS011;7057;49.984;8.404;2024-03-17T12:14:11;6.35;;;4.40;;
13969;SDS011;7057;49.984;8.404;2024-03-17T12:16:39;5.18;;;4.65;;
13969;SDS011;7057;49.984;8.404;2024-03-17T12:19:13;5.30;;;4.35;;
13969;SDS011;7057;49.984;8.404;2024-03-17T12:21:41;5.05;;;4.20;;
13969;SDS011;7057;49.984;8.404;2024-03-17T12:24:09;4.65;;;4.25;;
13969;SDS011;7057;49.984;8.404;2024-03-17T12:26:39;6.47;;;4.78;;
13969;SDS011;7057;49.984;8.404;2024-03-17T12:29:20;5.80;;;4.78;;
13969;SDS011;7057;49.984;8.404;2024-03-17T12:31:49;7.22;;;5.20;;
13969;SDS011;7057;49.984;8.404;2024-03-17T12:34:16;6.55;;;5.15;;
13969;SDS011;7057;49.984;8.404;2024-03-17T12:36:43;6.90;;;5.20;;
13969;SDS011;7057;49.984;8.404;2024-03-17T12:39:10;6.47;;;5.40;;
13969;SDS011;7057;49.984;8.404;2024-03-17T12:41:37;7.10;;;5.50;;
13969;SDS011;7057;49.984;8.404;2024-03-17T12:44:04;7.13;;;4.95;;
13969;SDS011;7057;49.984;8.404;2024-03-17T12:46:30;8.70;;;6.15;;
13969;SDS011;7057;49.984;8.404;2024-03-17T12:49:00;8.55;;;6.05;;
13969;SDS011;7057;49.984;8.404;2024-03-17T12:51:26;6.72;;;5.95;;
13969;SDS011;7057;49.984;8.404;2024-03-17T12:56:34;7.68;;;6.53;;
13969;SDS011;7057;49.984;8.404;2024-03-17T12:59:19;9.30;;;6.63;;
13969;SDS011;7057;49.984;8.404;2024-03-17T13:02:10;7.13;;;6.43;;
13969;SDS011;7057;49.984;8.404;2024-03-17T13:04:38;7.00;;;5.78;;
13969;SDS011;7057;49.984;8.404;2024-03-17T13:07:09;10.85;;;6.50;;
13969;SDS011;7057;49.984;8.404;2024-03-17T13:09:36;6.95;;;5.97;;
13969;SDS011;7057;49.984;8.404;2024-03-17T13:12:11;9.35;;;6.72;;
13969;SDS011;7057;49.984;8.404;2024-03-17T13:14:39;8.52;;;7.50;;
13969;SDS011;7057;49.984;8.404;2024-03-17T13:17:06;7.97;;;7.18;;
13969;SDS011;7057;49.984;8.404;2024-03-17T13:19:33;10.13;;;7.80;;
13969;SDS011;7057;49.984;8.404;2024-03-17T13:22:04;9.07;;;7.25;;
13969;SDS011;7057;49.984;8.404;2024-03-17T13:24:32;9.27;;;7.53;;
13969;SDS011;7057;49.984;8.404;2024-03-17T13:26:59;9.30;;;7.78;;
13969;SDS011;7057;49.984;8.404;2024-03-17T13:29:30;8.80;;;7.30;;
13969;SDS011;7057;49.984;8.404;2024-03-17T13:32:00;10.60;;;8.32;;
13969;SDS011;7057;49.984;8.404;2024-03-17T13:34:28;11.52;;;9.05;;
13969;SDS011;7057;49.984;8.404;2024-03-17T13:36:55;9.10;;;8.13;;
13969;SDS011;7057;49.984;8.404;2024-03-17T13:39:26;10.32;;;8.30;;
13969;SDS011;7057;49.984;8.404;2024-03-17T13:41:56;9.77;;;8.70;;
13969;SDS011;7057;49.984;8.404;2024-03-17T13:44:27;9.07;;;7.93;;
13969;SDS011;7057;49.984;8.404;2024-03-17T13:46:55;11.43;;;8.40;;
13969;SDS011;7057;49.984;8.404;2024-03-17T13:49:22;11.02;;;8.68;;
13969;SDS011;7057;49.984;8.404;2024-03-17T13:51:49;9.77;;;8.43;;
13969;SDS011;7057;49.984;8.404;2024-03-17T13:54:16;9.40;;;8.27;;
13969;SDS011;7057;49.984;8.404;2024-03-17T13:56:47;8.88;;;7.97;;
13969;SDS011;7057;49.984;8.404;2024-03-17T13:59:14;10.13;;;7.78;;
13969;SDS011;7057;49.984;8.404;2024-03-17T14:01:41;9.70;;;8.35;;
13969;SDS011;7057;49.984;8.404;2024-03-17T14:04:11;9.90;;;8.48;;
13969;SDS011;7057;49.984;8.404;2024-03-17T14:06:40;11.27;;;7.90;;
13969;SDS011;7057;49.984;8.404;2024-03-17T14:09:07;9.40;;;7.50;;
13969;SDS011;7057;49.984;8.404;2024-03-17T14:11:35;10.13;;;7.70;;
13969;SDS011;7057;49.984;8.404;2024-03-17T14:14:04;9.75;;;8.05;;
13969;SDS011;7057;49.984;8.404;2024-03-17T14:16:33;8.83;;;7.93;;
13969;SDS011;7057;49.984;8.404;2024-03-17T14:19:00;12.65;;;8.85;;
13969;SDS011;7057;49.984;8.404;2024-03-17T14:21:28;9.38;;;7.85;;
13969;SDS011;7057;49.984;8.404;2024-03-17T14:23:55;9.55;;;7.80;;
13969;SDS011;7057;49.984;8.404;2024-03-17T14:26:22;8.45;;;7.47;;
13969;SDS011;7057;49.984;8.404;2024-03-17T14:28:50;12.80;;;8.23;;
13969;SDS011;7057;49.984;8.404;2024-03-17T14:31:20;10.52;;;7.68;;
13969;SDS011;7057;49.984;8.404;2024-03-17T14:33:47;8.07;;;7.10;;
13969;SDS011;7057;49.984;8.404;2024-03-17T14:36:15;8.27;;;7.03;;
13969;SDS011;7057;49.984;8.404;2024-03-17T14:38:43;10.07;;;8.02;;
13969;SDS011;7057;49.984;8.404;2024-03-17T14:41:10;8.32;;;7.03;;
13969;SDS011;7057;49.984;8.404;2024-03-17T14:43:38;8.80;;;7.88;;
13969;SDS011;7057;49.984;8.404;2024-03-17T14:46:05;11.30;;;7.97;;
13969;SDS011;7057;49.984;8.404;2024-03-17T14:48:36;8.85;;;8.00;;
13969;SDS011;7057;49.984;8.404;2024-03-17T14:51:04;8.73;;;7.82;;
13969;SDS011;7057;49.984;8.404;2024-03-17T14:53:31;9.18;;;7.80;;
13969;SDS011;7057;49.984;8.404;2024-03-17T14:55:58;10.05;;;7.43;;
13969;SDS011;7057;49.984;8.404;2024-03-17T14:58:25;11.43;;;8.50;;
13969;SDS011;7057;49.984;8.404;2024-03-17T15:00:52;9.52;;;8.15;;
13969;SDS011;7057;49.984;8.404;2024-03-17T15:03:19;9.13;;;7.97;;
13969;SDS011;7057;49.984;8.404;2024-03-17T15:05:48;9.70;;;8.05;;